IFVGF LIEO-LIEE
Flight info
| Callsign | IFVGF |
|---|---|
| Flight time | 0h 29m |
| Altitude | 15000 |
| Route | LABOM7K/05 LABOM Q125 KOVAS |
| Aircraft | STAR/L-SDFGRWY/S |
Departure
| Time | 2026-04-28 20:14 |
|---|---|
| Airport | Olbia Costa Smeralda Airport (LIEO) |
Arrival
| Time | 2026-04-28 20:43 |
|---|---|
| Airport | Cagliari Elmas Airport (LIEE) |
| Time | Latitude | Longitude | Altitude | Speed | Heading |
|---|---|---|---|---|---|
| 2026-04-28 19:58 | 40.89634 | 9.50575 | 40 ft | 0 kts | 145° |
| 2026-04-28 20:09 | 40.89594 | 9.50559 | 40 ft | 14 kts | 238° |
| 2026-04-28 20:09 | 40.89515 | 9.50408 | 41 ft | 25 kts | 237° |
| 2026-04-28 20:09 | 40.89410 | 9.50367 | 42 ft | 12 kts | 146° |
| 2026-04-28 20:10 | 40.89384 | 9.50386 | 42 ft | 0 kts | 155° |
| 2026-04-28 20:11 | 40.89382 | 9.50388 | 42 ft | 4 kts | 155° |
| 2026-04-28 20:11 | 40.89303 | 9.50452 | 42 ft | 18 kts | 140° |
| 2026-04-28 20:12 | 40.89269 | 9.50533 | 43 ft | 3 kts | 111° |
| 2026-04-28 20:12 | 40.89254 | 9.50583 | 43 ft | 8 kts | 90° |
| 2026-04-28 20:12 | 40.89259 | 9.50603 | 43 ft | 0 kts | 57° |
| 2026-04-28 20:13 | 40.89320 | 9.50719 | 41 ft | 39 kts | 55° |
| 2026-04-28 20:13 | 40.89575 | 9.51207 | 38 ft | 89 kts | 55° |
| 2026-04-28 20:13 | 40.90026 | 9.52068 | 161 ft | 130 kts | 57° |
| 2026-04-28 20:14 | 40.90574 | 9.53119 | 739 ft | 142 kts | 55° |
| 2026-04-28 20:14 | 40.91167 | 9.54186 | 1458 ft | 149 kts | 56° |
| 2026-04-28 20:14 | 40.91806 | 9.55313 | 2143 ft | 155 kts | 57° |
| 2026-04-28 20:14 | 40.92453 | 9.56445 | 2876 ft | 152 kts | 58° |
| 2026-04-28 20:15 | 40.93071 | 9.57601 | 3558 ft | 160 kts | 60° |
| 2026-04-28 20:15 | 40.93710 | 9.58964 | 3836 ft | 188 kts | 62° |
| 2026-04-28 20:15 | 40.94446 | 9.60448 | 4322 ft | 200 kts | 56° |
| 2026-04-28 20:15 | 40.95307 | 9.61992 | 4696 ft | 218 kts | 56° |
| 2026-04-28 20:16 | 40.96215 | 9.63715 | 4871 ft | 238 kts | 58° |
| 2026-04-28 20:16 | 40.97149 | 9.65603 | 4953 ft | 251 kts | 65° |
| 2026-04-28 20:16 | 40.97464 | 9.67813 | 5458 ft | 237 kts | 97° |
| 2026-04-28 20:16 | 40.96903 | 9.69735 | 6284 ft | 218 kts | 130° |
| 2026-04-28 20:17 | 40.95726 | 9.70832 | 7082 ft | 202 kts | 165° |
| 2026-04-28 20:17 | 40.94380 | 9.70819 | 7883 ft | 191 kts | 194° |
| 2026-04-28 20:17 | 40.93120 | 9.70341 | 8648 ft | 189 kts | 199° |
| 2026-04-28 20:17 | 40.91865 | 9.69782 | 9256 ft | 197 kts | 202° |
| 2026-04-28 20:18 | 40.90543 | 9.69009 | 9503 ft | 217 kts | 207° |
| 2026-04-28 20:18 | 40.89616 | 9.68436 | 9677 ft | 227 kts | 205° |
| 2026-04-28 20:18 | 40.87572 | 9.67361 | 9905 ft | 245 kts | 203° |
| 2026-04-28 20:18 | 40.85963 | 9.66473 | 9971 ft | 256 kts | 205° |
| 2026-04-28 20:19 | 40.84295 | 9.65545 | 10006 ft | 263 kts | 204° |
| 2026-04-28 20:19 | 40.82579 | 9.64617 | 10018 ft | 269 kts | 204° |
| 2026-04-28 20:19 | 40.80846 | 9.63664 | 10029 ft | 271 kts | 204° |
| 2026-04-28 20:19 | 40.79108 | 9.62708 | 10233 ft | 263 kts | 204° |
| 2026-04-28 20:20 | 40.77489 | 9.61830 | 11050 ft | 241 kts | 204° |
| 2026-04-28 20:20 | 40.75993 | 9.61006 | 11865 ft | 225 kts | 204° |
| 2026-04-28 20:20 | 40.74585 | 9.60232 | 12729 ft | 214 kts | 204° |
| 2026-04-28 20:20 | 40.73230 | 9.59498 | 13584 ft | 206 kts | 205° |
| 2026-04-28 20:21 | 40.71917 | 9.58774 | 14213 ft | 211 kts | 205° |
| 2026-04-28 20:21 | 40.70494 | 9.57984 | 14442 ft | 231 kts | 205° |
| 2026-04-28 20:21 | 40.68957 | 9.57158 | 14688 ft | 245 kts | 205° |
| 2026-04-28 20:21 | 40.67345 | 9.56274 | 14875 ft | 257 kts | 205° |
| 2026-04-28 20:22 | 40.65651 | 9.55343 | 14960 ft | 269 kts | 204° |
| 2026-04-28 20:22 | 40.63886 | 9.54391 | 15000 ft | 278 kts | 204° |
| 2026-04-28 20:22 | 40.62068 | 9.53395 | 15031 ft | 286 kts | 204° |
| 2026-04-28 20:22 | 40.60239 | 9.52398 | 15043 ft | 291 kts | 204° |
| 2026-04-28 20:23 | 40.58351 | 9.51371 | 15050 ft | 295 kts | 204° |
| 2026-04-28 20:23 | 40.56451 | 9.50335 | 15052 ft | 297 kts | 204° |
| 2026-04-28 20:23 | 40.54530 | 9.49290 | 15052 ft | 299 kts | 204° |
| 2026-04-28 20:23 | 40.53256 | 9.48598 | 15053 ft | 300 kts | 204° |
| 2026-04-28 20:24 | 40.50678 | 9.47195 | 15054 ft | 301 kts | 204° |
| 2026-04-28 20:24 | 40.48727 | 9.46138 | 15060 ft | 304 kts | 204° |
| 2026-04-28 20:24 | 40.46765 | 9.45073 | 15060 ft | 306 kts | 204° |
| 2026-04-28 20:24 | 40.44787 | 9.44000 | 15057 ft | 308 kts | 204° |
| 2026-04-28 20:25 | 40.42807 | 9.42928 | 15059 ft | 309 kts | 204° |
| 2026-04-28 20:25 | 40.40819 | 9.41850 | 15059 ft | 310 kts | 204° |
| 2026-04-28 20:25 | 40.38826 | 9.40758 | 15060 ft | 310 kts | 205° |
| 2026-04-28 20:25 | 40.36823 | 9.39721 | 15058 ft | 310 kts | 201° |
| 2026-04-28 20:26 | 40.34799 | 9.38732 | 15058 ft | 310 kts | 203° |
| 2026-04-28 20:26 | 40.32790 | 9.37689 | 15055 ft | 311 kts | 202° |
| 2026-04-28 20:26 | 40.30769 | 9.36688 | 15055 ft | 310 kts | 202° |
| 2026-04-28 20:26 | 40.28752 | 9.35667 | 15057 ft | 311 kts | 202° |
| 2026-04-28 20:27 | 40.26735 | 9.34648 | 15061 ft | 311 kts | 202° |
| 2026-04-28 20:27 | 40.24709 | 9.33634 | 15060 ft | 312 kts | 202° |
| 2026-04-28 20:27 | 40.22686 | 9.32613 | 15059 ft | 312 kts | 202° |
| 2026-04-28 20:27 | 40.21346 | 9.31940 | 15059 ft | 311 kts | 202° |
| 2026-04-28 20:28 | 40.19324 | 9.30926 | 15059 ft | 311 kts | 202° |
| 2026-04-28 20:28 | 40.17302 | 9.29909 | 15059 ft | 311 kts | 202° |
| 2026-04-28 20:28 | 40.15283 | 9.28897 | 15060 ft | 311 kts | 202° |
| 2026-04-28 20:28 | 40.13260 | 9.27883 | 15057 ft | 311 kts | 202° |
| 2026-04-28 20:29 | 40.11235 | 9.26868 | 15060 ft | 312 kts | 202° |
| 2026-04-28 20:29 | 40.09205 | 9.25853 | 15058 ft | 312 kts | 203° |
| 2026-04-28 20:29 | 40.07185 | 9.24840 | 15062 ft | 311 kts | 203° |
| 2026-04-28 20:29 | 40.05163 | 9.23827 | 15051 ft | 311 kts | 202° |
| 2026-04-28 20:30 | 40.03142 | 9.22823 | 15054 ft | 311 kts | 202° |
| 2026-04-28 20:30 | 40.01127 | 9.21811 | 15056 ft | 310 kts | 203° |
| 2026-04-28 20:30 | 39.99109 | 9.20807 | 15057 ft | 310 kts | 203° |
| 2026-04-28 20:30 | 39.97097 | 9.19800 | 15057 ft | 310 kts | 203° |
| 2026-04-28 20:31 | 39.95076 | 9.18793 | 15058 ft | 311 kts | 202° |
| 2026-04-28 20:31 | 39.93058 | 9.17790 | 15055 ft | 311 kts | 203° |
| 2026-04-28 20:31 | 39.91034 | 9.16780 | 15043 ft | 311 kts | 203° |
| 2026-04-28 20:31 | 39.89007 | 9.15774 | 14861 ft | 317 kts | 203° |
| 2026-04-28 20:32 | 39.86923 | 9.14737 | 14596 ft | 322 kts | 202° |
| 2026-04-28 20:32 | 39.84809 | 9.13796 | 14473 ft | 321 kts | 197° |
| 2026-04-28 20:32 | 39.82632 | 9.13150 | 14355 ft | 320 kts | 194° |
| 2026-04-28 20:32 | 39.80481 | 9.12407 | 14265 ft | 319 kts | 198° |
| 2026-04-28 20:33 | 39.78337 | 9.11677 | 14179 ft | 318 kts | 195° |
| 2026-04-28 20:33 | 39.76223 | 9.10983 | 14075 ft | 317 kts | 197° |
| 2026-04-28 20:33 | 39.74090 | 9.10246 | 13937 ft | 317 kts | 196° |
| 2026-04-28 20:33 | 39.71957 | 9.09543 | 13716 ft | 315 kts | 196° |
| 2026-04-28 20:34 | 39.69856 | 9.08833 | 13448 ft | 310 kts | 196° |
| 2026-04-28 20:34 | 39.67779 | 9.08134 | 13186 ft | 306 kts | 196° |
| 2026-04-28 20:34 | 39.65724 | 9.07452 | 12877 ft | 304 kts | 195° |
| 2026-04-28 20:34 | 39.63626 | 9.07026 | 12439 ft | 306 kts | 185° |
| 2026-04-28 20:35 | 39.61502 | 9.07083 | 11973 ft | 305 kts | 178° |
| 2026-04-28 20:35 | 39.59406 | 9.07215 | 11476 ft | 298 kts | 181° |
| 2026-04-28 20:35 | 39.57373 | 9.07213 | 10988 ft | 285 kts | 181° |
| 2026-04-28 20:35 | 39.55433 | 9.07286 | 10443 ft | 275 kts | 180° |
| 2026-04-28 20:36 | 39.53560 | 9.07220 | 9714 ft | 264 kts | 193° |
| 2026-04-28 20:36 | 39.51926 | 9.06271 | 8945 ft | 255 kts | 215° |
| 2026-04-28 20:36 | 39.50528 | 9.04889 | 8187 ft | 251 kts | 219° |
| 2026-04-28 20:36 | 39.49168 | 9.03489 | 7439 ft | 249 kts | 216° |
| 2026-04-28 20:37 | 39.47755 | 9.02215 | 6722 ft | 246 kts | 215° |
| 2026-04-28 20:37 | 39.46375 | 9.00908 | 5986 ft | 245 kts | 216° |
| 2026-04-28 20:37 | 39.45009 | 8.99601 | 5240 ft | 243 kts | 214° |
| 2026-04-28 20:37 | 39.43658 | 8.98346 | 4507 ft | 241 kts | 214° |
| 2026-04-28 20:38 | 39.42303 | 8.97071 | 3759 ft | 240 kts | 213° |
| 2026-04-28 20:38 | 39.40960 | 8.95801 | 3063 ft | 238 kts | 212° |
| 2026-04-28 20:38 | 39.39655 | 8.94582 | 2682 ft | 223 kts | 211° |
| 2026-04-28 20:38 | 39.38450 | 8.93451 | 2501 ft | 204 kts | 211° |
| 2026-04-28 20:39 | 39.37252 | 8.92788 | 2376 ft | 175 kts | 179° |
| 2026-04-28 20:39 | 39.36178 | 8.93196 | 2337 ft | 159 kts | 147° |
| 2026-04-28 20:39 | 39.35241 | 8.93983 | 2305 ft | 161 kts | 143° |
| 2026-04-28 20:39 | 39.34326 | 8.94803 | 2209 ft | 154 kts | 142° |
| 2026-04-28 20:40 | 39.33543 | 8.95621 | 2049 ft | 143 kts | 136° |
| 2026-04-28 20:40 | 39.32814 | 8.96503 | 1873 ft | 145 kts | 135° |
| 2026-04-28 20:40 | 39.32074 | 8.97398 | 1699 ft | 146 kts | 135° |
| 2026-04-28 20:40 | 39.31321 | 8.98269 | 1506 ft | 143 kts | 137° |
| 2026-04-28 20:41 | 39.30619 | 8.99078 | 1274 ft | 128 kts | 136° |
| 2026-04-28 20:41 | 39.29991 | 8.99818 | 1038 ft | 119 kts | 137° |
| 2026-04-28 20:41 | 39.29393 | 9.00532 | 829 ft | 116 kts | 138° |
| 2026-04-28 20:41 | 39.28788 | 9.01229 | 704 ft | 118 kts | 140° |
| 2026-04-28 20:42 | 39.28168 | 9.01935 | 586 ft | 118 kts | 141° |
| 2026-04-28 20:42 | 39.27559 | 9.02635 | 433 ft | 115 kts | 140° |
| 2026-04-28 20:42 | 39.26956 | 9.03336 | 259 ft | 119 kts | 142° |
| 2026-04-28 20:42 | 39.26357 | 9.04027 | 120 ft | 107 kts | 141° |
| 2026-04-28 20:43 | 39.25845 | 9.04622 | 21 ft | 89 kts | 141° |
| 2026-04-28 20:43 | 39.25439 | 9.05092 | 15 ft | 65 kts | 137° |
| 2026-04-28 20:43 | 39.25172 | 9.05402 | 14 ft | 41 kts | 138° |
| 2026-04-28 20:43 | 39.25049 | 9.05602 | 16 ft | 23 kts | 64° |
| 2026-04-28 20:44 | 39.25130 | 9.05783 | 14 ft | 16 kts | 59° |
| 2026-04-28 20:44 | 39.25148 | 9.05823 | 14 ft | 0 kts | 60° |
| 2026-04-28 20:44 | 39.25151 | 9.05830 | 14 ft | 8 kts | 60° |
| 2026-04-28 20:44 | 39.25266 | 9.05754 | 14 ft | 31 kts | 321° |
| 2026-04-28 20:45 | 39.25377 | 9.05741 | 14 ft | 12 kts | 54° |
| 2026-04-28 20:45 | 39.25450 | 9.05864 | 14 ft | 17 kts | 52° |
| 2026-04-28 20:45 | 39.25508 | 9.05876 | 14 ft | 11 kts | 333° |
| 2026-04-28 20:45 | 39.25598 | 9.05764 | 15 ft | 17 kts | 302° |
| 2026-04-28 20:46 | 39.25614 | 9.05740 | 15 ft | 0 kts | 324° |